sensor_id;sensor_type;location;lat;lon;timestamp;pressure;altitude;pressure_sealevel;temperature;humidity
49709;BME280;35601;55.902;13.606;2023-03-16T00:00:49;100494.47;;;-0.99;85.65
49709;BME280;35601;55.902;13.606;2023-03-16T00:03:14;100494.46;;;-0.79;85.35
49709;BME280;35601;55.902;13.606;2023-03-16T00:05:38;100503.20;;;-0.82;84.72
49709;BME280;35601;55.902;13.606;2023-03-16T00:08:05;100527.44;;;-0.94;84.93
49709;BME280;35601;55.902;13.606;2023-03-16T00:10:29;100539.72;;;-1.43;85.13
49709;BME280;35601;55.902;13.606;2023-03-16T00:12:55;100535.49;;;-1.50;84.98
49709;BME280;35601;55.902;13.606;2023-03-16T00:15:20;100541.76;;;-1.66;85.26
49709;BME280;35601;55.902;13.606;2023-03-16T00:17:45;100546.05;;;-1.59;85.29
49709;BME280;35601;55.902;13.606;2023-03-16T00:20:11;100556.24;;;-1.58;86.01
49709;BME280;35601;55.902;13.606;2023-03-16T00:22:36;100565.22;;;-1.99;86.66
49709;BME280;35601;55.902;13.606;2023-03-16T00:25:01;100567.42;;;-2.25;88.54
49709;BME280;35601;55.902;13.606;2023-03-16T00:27:28;100571.86;;;-2.02;88.86
49709;BME280;35601;55.902;13.606;2023-03-16T00:29:53;100571.37;;;-2.50;89.10
49709;BME280;35601;55.902;13.606;2023-03-16T00:32:20;100577.77;;;-2.20;89.20
49709;BME280;35601;55.902;13.606;2023-03-16T00:34:43;100578.67;;;-2.57;89.52
49709;BME280;35601;55.902;13.606;2023-03-16T00:37:08;100584.53;;;-2.68;91.02
49709;BME280;35601;55.902;13.606;2023-03-16T00:39:35;100589.45;;;-2.60;91.57
49709;BME280;35601;55.902;13.606;2023-03-16T00:42:00;100590.39;;;-2.38;90.97
49709;BME280;35601;55.902;13.606;2023-03-16T00:44:24;100593.43;;;-2.71;91.19
49709;BME280;35601;55.902;13.606;2023-03-16T00:46:50;100596.18;;;-2.60;91.18
49709;BME280;35601;55.902;13.606;2023-03-16T00:49:15;100598.57;;;-3.03;92.44
49709;BME280;35601;55.902;13.606;2023-03-16T00:51:40;100610.02;;;-2.70;92.82
49709;BME280;35601;55.902;13.606;2023-03-16T00:54:06;100613.25;;;-2.94;93.60
49709;BME280;35601;55.902;13.606;2023-03-16T00:56:31;100617.33;;;-2.81;92.67
49709;BME280;35601;55.902;13.606;2023-03-16T00:58:57;100631.07;;;-3.00;93.03
49709;BME280;35601;55.902;13.606;2023-03-16T01:01:22;100637.80;;;-2.70;92.56
49709;BME280;35601;55.902;13.606;2023-03-16T01:03:49;100645.62;;;-3.09;93.22
49709;BME280;35601;55.902;13.606;2023-03-16T01:06:15;100655.22;;;-2.51;92.49
49709;BME280;35601;55.902;13.606;2023-03-16T01:08:40;100662.28;;;-2.54;91.80
49709;BME280;35601;55.902;13.606;2023-03-16T01:11:05;100661.56;;;-3.03;91.20
49709;BME280;35601;55.902;13.606;2023-03-16T01:13:29;100667.07;;;-2.80;89.72
49709;BME280;35601;55.902;13.606;2023-03-16T01:15:55;100688.01;;;-2.60;90.33
49709;BME280;35601;55.902;13.606;2023-03-16T01:18:20;100706.90;;;-2.87;90.76
49709;BME280;35601;55.902;13.606;2023-03-16T01:20:45;100716.35;;;-2.52;90.63
49709;BME280;35601;55.902;13.606;2023-03-16T01:23:11;100731.10;;;-2.64;91.00
49709;BME280;35601;55.902;13.606;2023-03-16T01:25:36;100738.49;;;-2.43;90.62
49709;BME280;35601;55.902;13.606;2023-03-16T01:28:02;100744.25;;;-2.49;89.98
49709;BME280;35601;55.902;13.606;2023-03-16T01:30:27;100749.19;;;-2.70;89.56
49709;BME280;35601;55.902;13.606;2023-03-16T01:32:52;100751.46;;;-2.19;89.62
49709;BME280;35601;55.902;13.606;2023-03-16T01:35:20;100751.40;;;-2.41;88.85
49709;BME280;35601;55.902;13.606;2023-03-16T01:37:43;100753.76;;;-2.33;88.39
49709;BME280;35601;55.902;13.606;2023-03-16T01:40:10;100756.34;;;-2.30;88.06
49709;BME280;35601;55.902;13.606;2023-03-16T01:42:44;100759.20;;;-2.27;88.09
49709;BME280;35601;55.902;13.606;2023-03-16T01:45:00;100764.96;;;-2.22;88.22
49709;BME280;35601;55.902;13.606;2023-03-16T01:47:25;100766.64;;;-2.50;88.16
49709;BME280;35601;55.902;13.606;2023-03-16T01:49:52;100771.42;;;-2.14;88.70
49709;BME280;35601;55.902;13.606;2023-03-16T01:52:21;100773.45;;;-2.31;88.59
49709;BME280;35601;55.902;13.606;2023-03-16T01:54:44;100777.19;;;-2.38;88.87
49709;BME280;35601;55.902;13.606;2023-03-16T01:57:10;100779.73;;;-2.42;89.07
49709;BME280;35601;55.902;13.606;2023-03-16T01:59:35;100785.38;;;-2.23;88.55
49709;BME280;35601;55.902;13.606;2023-03-16T02:01:58;100790.45;;;-2.18;88.38
49709;BME280;35601;55.902;13.606;2023-03-16T02:04:34;100800.66;;;-2.11;88.04
49709;BME280;35601;55.902;13.606;2023-03-16T02:06:48;100805.48;;;-2.34;88.08
49709;BME280;35601;55.902;13.606;2023-03-16T02:09:15;100810.88;;;-2.11;88.04
49709;BME280;35601;55.902;13.606;2023-03-16T02:11:40;100810.50;;;-2.28;87.96
49709;BME280;35601;55.902;13.606;2023-03-16T02:14:09;100815.68;;;-2.46;87.77
49709;BME280;35601;55.902;13.606;2023-03-16T02:16:30;100820.59;;;-2.17;87.58
49709;BME280;35601;55.902;13.606;2023-03-16T02:18:55;100825.82;;;-1.95;87.42
49709;BME280;35601;55.902;13.606;2023-03-16T02:21:29;100831.49;;;-2.25;87.70
49709;BME280;35601;55.902;13.606;2023-03-16T02:23:47;100831.77;;;-1.92;87.27
49709;BME280;35601;55.902;13.606;2023-03-16T02:26:16;100837.76;;;-2.09;87.09
49709;BME280;35601;55.902;13.606;2023-03-16T02:28:43;100839.92;;;-1.84;86.99
49709;BME280;35601;55.902;13.606;2023-03-16T02:31:02;100845.17;;;-2.30;87.08
49709;BME280;35601;55.902;13.606;2023-03-16T02:33:29;100850.02;;;-1.84;87.09
49709;BME280;35601;55.902;13.606;2023-03-16T02:35:53;100854.81;;;-2.11;87.24
49709;BME280;35601;55.902;13.606;2023-03-16T02:38:19;100854.41;;;-2.05;87.61
49709;BME280;35601;55.902;13.606;2023-03-16T02:40:45;100855.65;;;-2.04;87.80
49709;BME280;35601;55.902;13.606;2023-03-16T02:43:15;100859.76;;;-2.18;87.84
49709;BME280;35601;55.902;13.606;2023-03-16T02:45:38;100864.92;;;-2.51;88.00
49709;BME280;35601;55.902;13.606;2023-03-16T02:48:03;100865.16;;;-2.24;87.77
49709;BME280;35601;55.902;13.606;2023-03-16T02:50:25;100867.65;;;-2.45;87.64
49709;BME280;35601;55.902;13.606;2023-03-16T02:52:50;100872.28;;;-2.23;87.55
49709;BME280;35601;55.902;13.606;2023-03-16T02:55:17;100876.35;;;-2.16;87.30
49709;BME280;35601;55.902;13.606;2023-03-16T02:57:42;100877.72;;;-2.06;86.79
49709;BME280;35601;55.902;13.606;2023-03-16T03:00:08;100878.51;;;-2.01;86.77
49709;BME280;35601;55.902;13.606;2023-03-16T03:02:32;100883.57;;;-2.04;86.33
49709;BME280;35601;55.902;13.606;2023-03-16T03:04:57;100888.29;;;-2.16;86.13
49709;BME280;35601;55.902;13.606;2023-03-16T03:07:24;100889.15;;;-2.32;85.93
49709;BME280;35601;55.902;13.606;2023-03-16T03:09:48;100891.85;;;-2.05;85.03
49709;BME280;35601;55.902;13.606;2023-03-16T03:12:14;100895.23;;;-2.04;84.55
49709;BME280;35601;55.902;13.606;2023-03-16T03:14:41;100901.05;;;-2.23;84.34
49709;BME280;35601;55.902;13.606;2023-03-16T03:17:07;100905.24;;;-1.91;84.08
49709;BME280;35601;55.902;13.606;2023-03-16T03:19:31;100910.19;;;-2.11;83.77
49709;BME280;35601;55.902;13.606;2023-03-16T03:21:56;100908.16;;;-2.21;83.36
49709;BME280;35601;55.902;13.606;2023-03-16T03:24:21;100907.19;;;-1.92;83.09
49709;BME280;35601;55.902;13.606;2023-03-16T03:26:46;100909.83;;;-2.14;83.00
49709;BME280;35601;55.902;13.606;2023-03-16T03:29:12;100925.23;;;-1.87;83.07
49709;BME280;35601;55.902;13.606;2023-03-16T03:31:38;100922.84;;;-2.10;84.00
49709;BME280;35601;55.902;13.606;2023-03-16T03:34:02;100922.25;;;-2.10;83.80
49709;BME280;35601;55.902;13.606;2023-03-16T03:36:28;100927.30;;;-2.19;83.63
49709;BME280;35601;55.902;13.606;2023-03-16T03:38:55;100933.24;;;-2.30;83.81
49709;BME280;35601;55.902;13.606;2023-03-16T03:41:20;100941.49;;;-2.35;83.92
49709;BME280;35601;55.902;13.606;2023-03-16T03:43:44;100946.73;;;-2.33;84.16
49709;BME280;35601;55.902;13.606;2023-03-16T03:46:09;100948.94;;;-2.54;84.44
49709;BME280;35601;55.902;13.606;2023-03-16T03:48:35;100953.84;;;-2.56;84.53
49709;BME280;35601;55.902;13.606;2023-03-16T03:51:01;100962.35;;;-2.44;84.31
49709;BME280;35601;55.902;13.606;2023-03-16T03:53:26;100963.33;;;-2.32;84.01
49709;BME280;35601;55.902;13.606;2023-03-16T03:55:53;100961.91;;;-2.25;83.57
49709;BME280;35601;55.902;13.606;2023-03-16T03:58:16;100968.01;;;-2.30;83.74
49709;BME280;35601;55.902;13.606;2023-03-16T04:00:42;100969.61;;;-2.42;83.57
49709;BME280;35601;55.902;13.606;2023-03-16T04:03:07;100969.51;;;-2.19;83.04
49709;BME280;35601;55.902;13.606;2023-03-16T04:05:33;100971.61;;;-2.05;82.36
49709;BME280;35601;55.902;13.606;2023-03-16T04:07:58;100977.73;;;-2.08;81.30
49709;BME280;35601;55.902;13.606;2023-03-16T04:10:25;100983.21;;;-1.93;80.62
49709;BME280;35601;55.902;13.606;2023-03-16T04:12:49;100985.93;;;-1.81;79.87
49709;BME280;35601;55.902;13.606;2023-03-16T04:15:14;100987.83;;;-1.72;79.22
49709;BME280;35601;55.902;13.606;2023-03-16T04:17:40;100992.88;;;-1.87;78.54
49709;BME280;35601;55.902;13.606;2023-03-16T04:20:06;100993.95;;;-1.63;78.17
49709;BME280;35601;55.902;13.606;2023-03-16T04:22:30;101000.19;;;-1.59;77.48
49709;BME280;35601;55.902;13.606;2023-03-16T04:24:56;101004.11;;;-1.82;77.06
49709;BME280;35601;55.902;13.606;2023-03-16T04:27:21;101008.44;;;-2.07;76.83
49709;BME280;35601;55.902;13.606;2023-03-16T04:29:47;101014.97;;;-1.96;76.94
49709;BME280;35601;55.902;13.606;2023-03-16T04:32:12;101015.78;;;-2.07;76.67
49709;BME280;35601;55.902;13.606;2023-03-16T04:34:37;101018.11;;;-1.79;76.37
49709;BME280;35601;55.902;13.606;2023-03-16T04:37:03;101018.30;;;-1.89;76.16
49709;BME280;35601;55.902;13.606;2023-03-16T04:39:29;101021.58;;;-1.69;76.67
49709;BME280;35601;55.902;13.606;2023-03-16T04:41:54;101028.38;;;-1.70;76.32
49709;BME280;35601;55.902;13.606;2023-03-16T04:44:21;101028.41;;;-1.91;77.43
49709;BME280;35601;55.902;13.606;2023-03-16T04:46:45;101036.88;;;-2.08;78.41
49709;BME280;35601;55.902;13.606;2023-03-16T04:49:11;101037.86;;;-2.17;79.14
49709;BME280;35601;55.902;13.606;2023-03-16T04:51:36;101040.10;;;-2.01;78.89
49709;BME280;35601;55.902;13.606;2023-03-16T04:54:01;101041.17;;;-2.30;78.27
49709;BME280;35601;55.902;13.606;2023-03-16T04:56:27;101047.23;;;-2.22;78.59
49709;BME280;35601;55.902;13.606;2023-03-16T04:58:52;101049.46;;;-2.41;79.13
49709;BME280;35601;55.902;13.606;2023-03-16T05:01:18;101053.20;;;-2.19;78.90
49709;BME280;35601;55.902;13.606;2023-03-16T05:03:43;101057.62;;;-2.04;78.13
49709;BME280;35601;55.902;13.606;2023-03-16T05:06:09;101059.96;;;-1.94;77.61
49709;BME280;35601;55.902;13.606;2023-03-16T05:08:34;101060.69;;;-1.97;77.44
49709;BME280;35601;55.902;13.606;2023-03-16T05:10:59;101061.98;;;-1.90;76.97
49709;BME280;35601;55.902;13.606;2023-03-16T05:13:25;101062.46;;;-1.84;76.69
49709;BME280;35601;55.902;13.606;2023-03-16T05:15:50;101067.21;;;-1.86;76.39
49709;BME280;35601;55.902;13.606;2023-03-16T05:18:15;101068.98;;;-2.10;75.84
49709;BME280;35601;55.902;13.606;2023-03-16T05:20:40;101072.83;;;-2.34;77.09
49709;BME280;35601;55.902;13.606;2023-03-16T05:23:06;101075.89;;;-1.97;77.23
49709;BME280;35601;55.902;13.606;2023-03-16T05:25:31;101080.04;;;-2.18;76.93
49709;BME280;35601;55.902;13.606;2023-03-16T05:27:57;101084.38;;;-2.28;76.53
49709;BME280;35601;55.902;13.606;2023-03-16T05:30:22;101085.83;;;-2.34;76.77
49709;BME280;35601;55.902;13.606;2023-03-16T05:32:48;101088.42;;;-1.97;76.68
49709;BME280;35601;55.902;13.606;2023-03-16T05:35:13;101091.17;;;-2.42;76.78
49709;BME280;35601;55.902;13.606;2023-03-16T05:37:38;101095.34;;;-2.35;77.82
49709;BME280;35601;55.902;13.606;2023-03-16T05:40:05;101094.17;;;-2.11;78.25
49709;BME280;35601;55.902;13.606;2023-03-16T05:42:29;101098.85;;;-2.32;78.35
49709;BME280;35601;55.902;13.606;2023-03-16T05:44:54;101100.14;;;-2.71;79.24
49709;BME280;35601;55.902;13.606;2023-03-16T05:47:20;101108.16;;;-2.14;79.58
49709;BME280;35601;55.902;13.606;2023-03-16T05:49:45;101113.83;;;-2.03;79.41
49709;BME280;35601;55.902;13.606;2023-03-16T05:52:10;101115.49;;;-1.87;78.94
49709;BME280;35601;55.902;13.606;2023-03-16T05:54:36;101118.90;;;-2.13;78.21
49709;BME280;35601;55.902;13.606;2023-03-16T05:57:02;101125.12;;;-1.89;77.94
49709;BME280;35601;55.902;13.606;2023-03-16T05:59:27;101127.82;;;-1.87;78.00
49709;BME280;35601;55.902;13.606;2023-03-16T06:01:52;101134.44;;;-1.89;77.84
49709;BME280;35601;55.902;13.606;2023-03-16T06:04:17;101136.48;;;-2.50;78.79
49709;BME280;35601;55.902;13.606;2023-03-16T06:06:43;101139.34;;;-2.06;78.49
49709;BME280;35601;55.902;13.606;2023-03-16T06:09:10;101139.31;;;-2.09;78.96
49709;BME280;35601;55.902;13.606;2023-03-16T06:11:33;101142.92;;;-2.06;79.04
49709;BME280;35601;55.902;13.606;2023-03-16T06:13:59;101144.93;;;-2.14;79.16
49709;BME280;35601;55.902;13.606;2023-03-16T06:16:24;101151.83;;;-2.24;79.40
49709;BME280;35601;55.902;13.606;2023-03-16T06:18:49;101151.13;;;-1.99;79.35
49709;BME280;35601;55.902;13.606;2023-03-16T06:21:15;101152.70;;;-1.97;78.72
49709;BME280;35601;55.902;13.606;2023-03-16T06:23:40;101153.49;;;-2.14;78.85
49709;BME280;35601;55.902;13.606;2023-03-16T06:26:05;101156.29;;;-2.13;79.19
49709;BME280;35601;55.902;13.606;2023-03-16T06:28:31;101164.82;;;-2.30;79.35
49709;BME280;35601;55.902;13.606;2023-03-16T06:30:57;101167.16;;;-2.31;79.62
49709;BME280;35601;55.902;13.606;2023-03-16T06:33:22;101166.82;;;-2.12;78.85
49709;BME280;35601;55.902;13.606;2023-03-16T06:35:47;101166.61;;;-1.66;78.34
49709;BME280;35601;55.902;13.606;2023-03-16T06:38:13;101169.43;;;-2.10;78.14
49709;BME280;35601;55.902;13.606;2023-03-16T06:40:38;101169.68;;;-1.82;77.86
49709;BME280;35601;55.902;13.606;2023-03-16T06:43:03;101174.57;;;-1.87;76.88
49709;BME280;35601;55.902;13.606;2023-03-16T06:45:28;101180.20;;;-2.23;77.22
49709;BME280;35601;55.902;13.606;2023-03-16T06:47:55;101179.20;;;-2.05;76.94
49709;BME280;35601;55.902;13.606;2023-03-16T06:50:19;101180.89;;;-1.92;75.99
49709;BME280;35601;55.902;13.606;2023-03-16T06:52:45;101185.45;;;-1.67;76.50
49709;BME280;35601;55.902;13.606;2023-03-16T06:55:10;101192.53;;;-1.45;76.03
49709;BME280;35601;55.902;13.606;2023-03-16T06:57:35;101193.13;;;-1.89;77.57
49709;BME280;35601;55.902;13.606;2023-03-16T07:00:00;101198.69;;;-1.50;77.18
49709;BME280;35601;55.902;13.606;2023-03-16T07:02:25;101203.17;;;-1.99;76.97
49709;BME280;35601;55.902;13.606;2023-03-16T07:04:51;101206.45;;;-2.19;78.22
49709;BME280;35601;55.902;13.606;2023-03-16T07:07:16;101213.71;;;-1.97;78.38
49709;BME280;35601;55.902;13.606;2023-03-16T07:09:41;101211.87;;;-2.10;79.04
49709;BME280;35601;55.902;13.606;2023-03-16T07:12:07;101213.34;;;-2.07;78.56
49709;BME280;35601;55.902;13.606;2023-03-16T07:14:31;101211.41;;;-1.82;77.67
49709;BME280;35601;55.902;13.606;2023-03-16T07:16:57;101215.39;;;-1.85;77.13
49709;BME280;35601;55.902;13.606;2023-03-16T07:19:22;101218.78;;;-1.93;76.95
49709;BME280;35601;55.902;13.606;2023-03-16T07:21:48;101216.37;;;-1.78;76.44
49709;BME280;35601;55.902;13.606;2023-03-16T07:24:14;101221.89;;;-1.73;75.81
49709;BME280;35601;55.902;13.606;2023-03-16T07:26:38;101224.98;;;-1.65;75.31
49709;BME280;35601;55.902;13.606;2023-03-16T07:29:04;101226.46;;;-1.67;75.69
49709;BME280;35601;55.902;13.606;2023-03-16T07:31:29;101227.78;;;-1.41;75.75
49709;BME280;35601;55.902;13.606;2023-03-16T07:33:54;101230.59;;;-1.50;75.33
49709;BME280;35601;55.902;13.606;2023-03-16T07:36:19;101230.67;;;-2.07;77.59
49709;BME280;35601;55.902;13.606;2023-03-16T07:38:44;101234.01;;;-1.91;77.98
49709;BME280;35601;55.902;13.606;2023-03-16T07:41:10;101234.88;;;-1.88;76.28
49709;BME280;35601;55.902;13.606;2023-03-16T07:43:35;101237.57;;;-1.58;76.47
49709;BME280;35601;55.902;13.606;2023-03-16T07:46:00;101242.92;;;-2.13;77.39
49709;BME280;35601;55.902;13.606;2023-03-16T07:48:26;101239.46;;;-1.67;77.34
49709;BME280;35601;55.902;13.606;2023-03-16T07:50:51;101240.85;;;-2.01;75.83
49709;BME280;35601;55.902;13.606;2023-03-16T07:53:17;101245.94;;;-1.67;75.18
49709;BME280;35601;55.902;13.606;2023-03-16T07:55:42;101249.56;;;-1.83;75.38
49709;BME280;35601;55.902;13.606;2023-03-16T07:58:07;101253.19;;;-0.86;74.58
49709;BME280;35601;55.902;13.606;2023-03-16T08:00:33;101254.89;;;-1.59;74.92
49709;BME280;35601;55.902;13.606;2023-03-16T08:02:58;101260.08;;;-1.65;75.16
49709;BME280;35601;55.902;13.606;2023-03-16T08:05:23;101262.56;;;-1.41;76.13
49709;BME280;35601;55.902;13.606;2023-03-16T08:07:49;101261.82;;;-1.28;75.68
49709;BME280;35601;55.902;13.606;2023-03-16T08:10:14;101260.88;;;-1.01;74.77
49709;BME280;35601;55.902;13.606;2023-03-16T08:12:39;101263.15;;;-1.05;75.08
49709;BME280;35601;55.902;13.606;2023-03-16T08:15:05;101268.40;;;-0.92;74.78
49709;BME280;35601;55.902;13.606;2023-03-16T08:17:30;101267.48;;;-0.82;75.24
49709;BME280;35601;55.902;13.606;2023-03-16T08:19:55;101266.57;;;-0.58;74.71
49709;BME280;35601;55.902;13.606;2023-03-16T08:22:20;101271.93;;;-0.27;74.32
49709;BME280;35601;55.902;13.606;2023-03-16T08:24:46;101274.47;;;-0.50;74.77
49709;BME280;35601;55.902;13.606;2023-03-16T08:27:11;101274.65;;;-0.30;75.09
49709;BME280;35601;55.902;13.606;2023-03-16T08:29:36;101278.30;;;-0.16;74.80
49709;BME280;35601;55.902;13.606;2023-03-16T08:32:02;101279.13;;;0.13;73.85
49709;BME280;35601;55.902;13.606;2023-03-16T08:34:27;101277.67;;;0.24;70.76
49709;BME280;35601;55.902;13.606;2023-03-16T08:36:53;101277.70;;;0.40;70.94
49709;BME280;35601;55.902;13.606;2023-03-16T08:39:18;101278.81;;;0.35;71.45
49709;BME280;35601;55.902;13.606;2023-03-16T08:41:43;101282.59;;;0.50;70.54
49709;BME280;35601;55.902;13.606;2023-03-16T08:44:10;101282.59;;;0.49;69.67
49709;BME280;35601;55.902;13.606;2023-03-16T08:46:34;101289.32;;;0.64;68.35
49709;BME280;35601;55.902;13.606;2023-03-16T08:49:00;101296.44;;;0.56;69.11
49709;BME280;35601;55.902;13.606;2023-03-16T08:51:25;101304.39;;;0.80;69.90
49709;BME280;35601;55.902;13.606;2023-03-16T08:53:50;101307.84;;;0.47;68.98
49709;BME280;35601;55.902;13.606;2023-03-16T08:56:16;101306.69;;;0.95;69.31
49709;BME280;35601;55.902;13.606;2023-03-16T08:58:42;101310.00;;;0.87;70.66
49709;BME280;35601;55.902;13.606;2023-03-16T09:01:06;101312.98;;;0.89;71.31
49709;BME280;35601;55.902;13.606;2023-03-16T09:03:32;101316.43;;;0.82;70.79
49709;BME280;35601;55.902;13.606;2023-03-16T09:06:00;101321.26;;;0.80;70.00
49709;BME280;35601;55.902;13.606;2023-03-16T09:08:22;101328.22;;;0.82;69.48
49709;BME280;35601;55.902;13.606;2023-03-16T09:10:48;101324.14;;;0.74;69.24
49709;BME280;35601;55.902;13.606;2023-03-16T09:13:13;101325.55;;;0.99;69.01
49709;BME280;35601;55.902;13.606;2023-03-16T09:15:38;101328.94;;;1.10;69.22
49709;BME280;35601;55.902;13.606;2023-03-16T09:18:05;101332.23;;;0.65;70.61
49709;BME280;35601;55.902;13.606;2023-03-16T09:20:29;101336.03;;;0.22;70.63
49709;BME280;35601;55.902;13.606;2023-03-16T09:22:55;101333.76;;;0.34;72.71
49709;BME280;35601;55.902;13.606;2023-03-16T09:25:21;101333.76;;;0.34;72.30
49709;BME280;35601;55.902;13.606;2023-03-16T09:27:48;101338.06;;;0.35;74.85
49709;BME280;35601;55.902;13.606;2023-03-16T09:30:12;101340.11;;;0.45;71.87
49709;BME280;35601;55.902;13.606;2023-03-16T09:32:37;101338.99;;;0.56;72.05
49709;BME280;35601;55.902;13.606;2023-03-16T09:35:02;101340.15;;;0.58;72.82
49709;BME280;35601;55.902;13.606;2023-03-16T09:37:27;101342.10;;;0.76;75.25
49709;BME280;35601;55.902;13.606;2023-03-16T09:39:53;101348.03;;;0.59;74.27
49709;BME280;35601;55.902;13.606;2023-03-16T09:42:22;101349.70;;;0.73;74.78
49709;BME280;35601;55.902;13.606;2023-03-16T09:44:53;101344.63;;;0.65;74.87
49709;BME280;35601;55.902;13.606;2023-03-16T09:47:10;101341.50;;;0.70;74.20
49709;BME280;35601;55.902;13.606;2023-03-16T09:49:41;101342.18;;;1.15;72.64
49709;BME280;35601;55.902;13.606;2023-03-16T09:52:07;101343.21;;;1.48;71.35
49709;BME280;35601;55.902;13.606;2023-03-16T09:54:30;101345.99;;;1.73;70.26
49709;BME280;35601;55.902;13.606;2023-03-16T09:56:51;101346.12;;;2.07;69.42
49709;BME280;35601;55.902;13.606;2023-03-16T09:59:16;101350.80;;;2.41;69.59
49709;BME280;35601;55.902;13.606;2023-03-16T10:01:54;101351.04;;;2.34;68.20
49709;BME280;35601;55.902;13.606;2023-03-16T10:04:20;101349.32;;;2.74;67.88
49709;BME280;35601;55.902;13.606;2023-03-16T10:06:33;101349.56;;;3.05;67.16
49709;BME280;35601;55.902;13.606;2023-03-16T10:09:06;101354.46;;;3.14;65.19
49709;BME280;35601;55.902;13.606;2023-03-16T10:11:25;101353.61;;;3.18;65.24
49709;BME280;35601;55.902;13.606;2023-03-16T10:13:54;101357.15;;;3.05;64.97
49709;BME280;35601;55.902;13.606;2023-03-16T10:16:18;101361.55;;;3.17;63.53
49709;BME280;35601;55.902;13.606;2023-03-16T10:18:42;101363.67;;;3.34;63.42
49709;BME280;35601;55.902;13.606;2023-03-16T10:21:04;101367.86;;;2.89;64.98
49709;BME280;35601;55.902;13.606;2023-03-16T10:23:33;101362.36;;;3.16;64.49
49709;BME280;35601;55.902;13.606;2023-03-16T10:25:56;101368.51;;;3.43;63.37
49709;BME280;35601;55.902;13.606;2023-03-16T10:28:22;101368.86;;;3.71;62.34
49709;BME280;35601;55.902;13.606;2023-03-16T10:30:48;101367.29;;;3.90;60.67
49709;BME280;35601;55.902;13.606;2023-03-16T10:33:18;101368.26;;;4.67;57.91
49709;BME280;35601;55.902;13.606;2023-03-16T10:35:42;101371.10;;;4.79;58.45
49709;BME280;35601;55.902;13.606;2023-03-16T10:38:01;101367.46;;;4.85;56.72
49709;BME280;35601;55.902;13.606;2023-03-16T10:40:30;101368.69;;;5.18;54.30
49709;BME280;35601;55.902;13.606;2023-03-16T10:42:53;101371.58;;;5.32;53.29
49709;BME280;35601;55.902;13.606;2023-03-16T10:45:23;101374.98;;;5.00;53.04
49709;BME280;35601;55.902;13.606;2023-03-16T10:47:43;101378.80;;;5.81;48.49
49709;BME280;35601;55.902;13.606;2023-03-16T10:50:12;101377.87;;;6.17;51.07
49709;BME280;35601;55.902;13.606;2023-03-16T10:52:38;101380.49;;;6.04;47.98
49709;BME280;35601;55.902;13.606;2023-03-16T10:55:00;101376.72;;;6.46;45.81
49709;BME280;35601;55.902;13.606;2023-03-16T10:57:29;101373.07;;;6.49;46.20
49709;BME280;35601;55.902;13.606;2023-03-16T10:59:50;101368.81;;;6.61;46.13
49709;BME280;35601;55.902;13.606;2023-03-16T11:02:17;101362.66;;;7.03;45.40
49709;BME280;35601;55.902;13.606;2023-03-16T11:04:39;101364.70;;;6.87;46.59
49709;BME280;35601;55.902;13.606;2023-03-16T11:07:06;101365.08;;;6.69;40.18
49709;BME280;35601;55.902;13.606;2023-03-16T11:09:32;101362.97;;;6.79;42.79
49709;BME280;35601;55.902;13.606;2023-03-16T11:11:56;101366.97;;;6.56;44.78
49709;BME280;35601;55.902;13.606;2023-03-16T11:14:24;101358.39;;;6.89;42.43
49709;BME280;35601;55.902;13.606;2023-03-16T11:16:53;101356.26;;;6.77;36.67
49709;BME280;35601;55.902;13.606;2023-03-16T11:19:15;101356.93;;;7.30;39.88
49709;BME280;35601;55.902;13.606;2023-03-16T11:21:42;101355.51;;;7.78;39.96
49709;BME280;35601;55.902;13.606;2023-03-16T11:24:02;101353.85;;;8.29;36.10
49709;BME280;35601;55.902;13.606;2023-03-16T11:26:32;101356.32;;;8.16;34.59
49709;BME280;35601;55.902;13.606;2023-03-16T11:28:56;101357.28;;;8.08;36.22
49709;BME280;35601;55.902;13.606;2023-03-16T11:31:21;101359.11;;;6.96;35.88
49709;BME280;35601;55.902;13.606;2023-03-16T11:33:42;101357.69;;;6.74;35.29
49709;BME280;35601;55.902;13.606;2023-03-16T11:36:22;101358.58;;;6.96;34.22
49709;BME280;35601;55.902;13.606;2023-03-16T11:38:35;101362.66;;;6.36;35.06
49709;BME280;35601;55.902;13.606;2023-03-16T11:41:00;101351.77;;;6.76;33.78
49709;BME280;35601;55.902;13.606;2023-03-16T11:45:59;101352.35;;;7.10;35.79
49709;BME280;35601;55.902;13.606;2023-03-16T11:48:23;101346.79;;;6.75;35.10
49709;BME280;35601;55.902;13.606;2023-03-16T11:50:53;101348.37;;;7.34;33.23
49709;BME280;35601;55.902;13.606;2023-03-16T11:53:11;101354.96;;;6.62;33.42
49709;BME280;35601;55.902;13.606;2023-03-16T11:55:36;101349.13;;;6.55;32.21
49709;BME280;35601;55.902;13.606;2023-03-16T11:58:09;101347.99;;;7.02;31.18
49709;BME280;35601;55.902;13.606;2023-03-16T12:00:28;101347.76;;;6.95;31.37
49709;BME280;35601;55.902;13.606;2023-03-16T12:02:59;101354.23;;;5.42;32.12
49709;BME280;35601;55.902;13.606;2023-03-16T12:05:22;101351.31;;;5.94;31.77
49709;BME280;35601;55.902;13.606;2023-03-16T12:07:45;101350.08;;;5.03;28.92
49709;BME280;35601;55.902;13.606;2023-03-16T12:10:09;101349.99;;;5.39;29.85
49709;BME280;35601;55.902;13.606;2023-03-16T12:12:38;101357.21;;;4.84;29.55
49709;BME280;35601;55.902;13.606;2023-03-16T12:17:22;101347.01;;;5.56;31.97
49709;BME280;35601;55.902;13.606;2023-03-16T12:19:44;101348.22;;;5.68;31.17
49709;BME280;35601;55.902;13.606;2023-03-16T12:22:15;101343.57;;;5.96;30.18
49709;BME280;35601;55.902;13.606;2023-03-16T12:24:37;101346.87;;;4.50;30.01
49709;BME280;35601;55.902;13.606;2023-03-16T12:26:58;101342.11;;;4.52;30.62
49709;BME280;35601;55.902;13.606;2023-03-16T12:29:28;101335.51;;;4.67;31.33
49709;BME280;35601;55.902;13.606;2023-03-16T12:31:53;101339.61;;;4.42;31.78
49709;BME280;35601;55.902;13.606;2023-03-16T12:34:24;101337.58;;;4.37;33.64
49709;BME280;35601;55.902;13.606;2023-03-16T12:36:47;101338.01;;;4.96;33.16